createdAt,value
2023-04-26T00:00:53.775Z,19.68
2023-04-26T00:05:55.960Z,19.63
2023-04-26T00:10:57.872Z,19.63
2023-04-26T00:15:59.761Z,19.64
2023-04-26T00:21:01.811Z,19.63
2023-04-26T00:26:04.263Z,19.63
2023-04-26T00:31:06.078Z,19.63
2023-04-26T00:36:08.086Z,19.64
2023-04-26T00:41:09.861Z,19.66
2023-04-26T00:46:12.800Z,19.62
2023-04-26T00:51:15.743Z,19.65
2023-04-26T00:56:17.683Z,19.63
2023-04-26T01:01:19.972Z,19.57
2023-04-26T01:06:22.885Z,19.63
2023-04-26T01:11:25.209Z,19.62
2023-04-26T01:16:28.545Z,19.58
2023-04-26T01:21:30.362Z,19.60
2023-04-26T01:26:32.522Z,19.58
2023-04-26T01:31:34.384Z,19.58
2023-04-26T01:36:36.384Z,19.58
2023-04-26T01:41:38.246Z,19.54
2023-04-26T01:46:40.189Z,19.57
2023-04-26T01:51:42.226Z,19.59
2023-04-26T01:56:44.038Z,19.55
2023-04-26T02:01:46.477Z,19.55
2023-04-26T02:06:48.288Z,19.54
2023-04-26T02:11:50.064Z,19.56
2023-04-26T02:16:52.128Z,19.58
2023-04-26T02:21:58.582Z,19.56
2023-04-26T02:27:04.079Z,19.52
2023-04-26T02:32:06.064Z,19.55
2023-04-26T02:37:07.880Z,19.54
2023-04-26T02:42:12.496Z,19.53
2023-04-26T02:47:14.365Z,19.58
2023-04-26T02:52:16.107Z,19.53
2023-04-26T02:57:17.868Z,19.53
2023-04-26T03:02:19.887Z,19.50
2023-04-26T03:07:21.764Z,19.52
2023-04-26T03:12:23.542Z,19.47
2023-04-26T03:17:25.364Z,19.54
2023-04-26T03:22:27.187Z,19.54
2023-04-26T03:27:28.982Z,19.52
2023-04-26T03:32:31.530Z,19.46
2023-04-26T03:37:33.411Z,19.50
2023-04-26T03:42:35.251Z,19.46
2023-04-26T03:47:37.010Z,19.48
2023-04-26T03:52:38.824Z,19.46
2023-04-26T03:57:40.592Z,19.49
2023-04-26T04:02:43.124Z,19.45
2023-04-26T04:07:45.291Z,19.47
2023-04-26T04:12:47.099Z,19.47
2023-04-26T04:17:48.931Z,19.45
2023-04-26T04:22:51.472Z,19.44
2023-04-26T04:27:53.655Z,19.42
2023-04-26T04:32:56.110Z,19.41
2023-04-26T04:37:57.936Z,19.44
2023-04-26T04:43:01.289Z,19.43
2023-04-26T04:48:05.479Z,19.40
2023-04-26T04:53:07.338Z,19.39
2023-04-26T04:58:09.135Z,19.40
2023-04-26T05:03:11.077Z,19.43
2023-04-26T05:08:13.181Z,19.38
2023-04-26T05:13:14.959Z,19.40
2023-04-26T05:18:16.757Z,19.37
2023-04-26T05:23:18.494Z,19.40
2023-04-26T05:28:20.245Z,19.35
2023-04-26T05:33:22.148Z,19.40
2023-04-26T05:38:24.129Z,19.37
2023-04-26T05:43:26.035Z,19.35
2023-04-26T05:48:28.022Z,19.32
2023-04-26T05:53:29.871Z,19.29
2023-04-26T05:58:33.979Z,19.30
2023-04-26T06:03:36.018Z,19.32
2023-04-26T06:08:38.758Z,19.33
2023-04-26T06:13:40.569Z,19.29
2023-04-26T06:18:42.366Z,19.34
2023-04-26T06:23:44.157Z,19.30
2023-04-26T06:28:45.965Z,19.37
2023-04-26T06:33:47.768Z,19.28
2023-04-26T06:38:49.639Z,19.34
2023-04-26T06:43:51.780Z,19.30
2023-04-26T06:48:55.584Z,19.33
2023-04-26T06:53:59.322Z,19.35
2023-04-26T06:59:05.439Z,19.35
2023-04-26T07:04:13.350Z,19.34
2023-04-26T07:09:15.221Z,19.34
2023-04-26T07:14:17.625Z,19.35
2023-04-26T07:19:19.956Z,19.30
2023-04-26T07:24:21.835Z,19.31
2023-04-26T07:29:23.855Z,19.27
2023-04-26T07:34:25.783Z,19.26
2023-04-26T07:39:27.705Z,19.26
2023-04-26T07:44:29.707Z,19.28
2023-04-26T07:49:31.486Z,19.27
2023-04-26T07:54:33.263Z,19.40
2023-04-26T07:59:35.023Z,19.49
2023-04-26T08:04:37.155Z,19.51
2023-04-26T08:09:39.198Z,19.50
2023-04-26T08:14:41.309Z,19.50
2023-04-26T08:19:43.084Z,19.56
2023-04-26T08:24:50.415Z,19.61
2023-04-26T08:29:52.223Z,19.56
2023-04-26T08:34:54.017Z,19.49
2023-04-26T08:39:55.919Z,19.34
2023-04-26T08:45:02.476Z,19.31
2023-04-26T08:50:05.392Z,19.26
2023-04-26T08:55:10.190Z,19.25
2023-04-26T09:00:13.756Z,19.27
2023-04-26T09:05:16.101Z,19.27
2023-04-26T09:10:22.535Z,19.30
2023-04-26T09:15:26.714Z,19.35
2023-04-26T09:20:30.510Z,19.32
2023-04-26T09:25:32.571Z,19.35
2023-04-26T09:30:40.180Z,19.31
2023-04-26T09:35:43.977Z,19.36
2023-04-26T09:40:48.330Z,19.48
2023-04-26T09:45:55.672Z,19.48
2023-04-26T09:51:18.676Z,19.50
2023-04-26T09:56:21.231Z,19.50
2023-04-26T10:01:23.620Z,19.51
2023-04-26T10:06:25.674Z,19.49
2023-04-26T10:11:27.761Z,19.53
2023-04-26T10:16:30.392Z,19.54
2023-04-26T10:21:38.267Z,19.55
2023-04-26T10:26:57.099Z,19.58
2023-04-26T10:32:16.697Z,19.51
2023-04-26T10:37:18.840Z,19.48
2023-04-26T10:42:25.832Z,19.50
2023-04-26T10:47:37.536Z,19.46
2023-04-26T10:53:03.862Z,19.46
2023-04-26T10:58:28.247Z,19.46
2023-04-26T11:03:31.412Z,19.53
2023-04-26T11:08:34.506Z,19.55
2023-04-26T11:13:38.925Z,19.54
2023-04-26T11:18:43.647Z,19.55
2023-04-26T11:23:54.489Z,19.53
2023-04-26T11:28:56.252Z,19.55
2023-04-26T11:34:07.227Z,19.53
2023-04-26T11:39:09.109Z,19.55
2023-04-26T11:44:12.836Z,19.57
2023-04-26T11:49:16.438Z,19.55
2023-04-26T11:54:32.466Z,19.54
2023-04-26T11:59:34.236Z,19.55
2023-04-26T12:04:37.953Z,19.52
2023-04-26T12:09:44.736Z,19.57
2023-04-26T12:14:47.520Z,19.56
2023-04-26T12:19:50.372Z,19.59
2023-04-26T12:25:05.688Z,19.54
2023-04-26T12:30:08.249Z,19.54
2023-04-26T12:35:10.086Z,19.53
2023-04-26T12:40:12.608Z,19.53
2023-04-26T12:45:14.484Z,19.57
2023-04-26T12:50:18.614Z,19.54
2023-04-26T12:55:21.417Z,19.56
2023-04-26T13:00:23.209Z,19.56
2023-04-26T13:05:25.701Z,19.54
2023-04-26T13:10:27.701Z,19.50
2023-04-26T13:15:30.208Z,19.65
2023-04-26T13:20:31.985Z,19.75
2023-04-26T13:25:33.835Z,19.81
2023-04-26T13:30:35.581Z,19.85
2023-04-26T13:35:37.348Z,19.85
2023-04-26T13:40:39.321Z,19.81
2023-04-26T13:45:41.289Z,19.78
2023-04-26T13:50:43.162Z,19.79
2023-04-26T13:55:44.937Z,19.77
2023-04-26T14:00:46.796Z,19.77
2023-04-26T14:05:48.591Z,19.74
2023-04-26T14:10:50.433Z,19.73
2023-04-26T14:15:52.412Z,19.72
2023-04-26T14:20:54.214Z,19.74
2023-04-26T14:25:56.199Z,19.68
2023-04-26T14:30:57.988Z,19.68
2023-04-26T14:35:59.847Z,19.69
2023-04-26T14:41:01.942Z,19.67
2023-04-26T14:46:03.963Z,19.69
2023-04-26T14:51:05.881Z,19.71
2023-04-26T14:56:08.511Z,19.70
2023-04-26T15:01:10.822Z,19.69
2023-04-26T15:06:12.801Z,19.67
2023-04-26T15:11:14.652Z,19.71
2023-04-26T15:16:17.101Z,19.72
2023-04-26T15:21:19.994Z,19.74
2023-04-26T15:26:22.194Z,19.70
2023-04-26T15:31:24.542Z,19.67
2023-04-26T15:36:26.415Z,19.68
2023-04-26T15:41:28.179Z,19.70
2023-04-26T15:46:29.970Z,19.66
2023-04-26T15:51:32.120Z,19.67
2023-04-26T15:56:33.920Z,19.68
2023-04-26T16:01:35.834Z,19.70
2023-04-26T16:06:37.767Z,19.66
2023-04-26T16:11:39.594Z,19.68
2023-04-26T16:16:41.669Z,19.64
2023-04-26T16:21:43.524Z,19.60
2023-04-26T16:26:45.406Z,19.53
2023-04-26T16:31:47.249Z,19.52
2023-04-26T16:36:49.084Z,19.46
2023-04-26T16:41:54.087Z,19.47
2023-04-26T16:46:56.526Z,19.52
2023-04-26T16:51:59.189Z,19.51
2023-04-26T16:57:01.222Z,19.50
2023-04-26T17:02:03.086Z,19.50
2023-04-26T17:07:04.950Z,19.46
2023-04-26T17:12:07.696Z,19.43
2023-04-26T17:17:09.579Z,19.39
2023-04-26T17:22:11.584Z,19.37
2023-04-26T17:27:13.377Z,19.30
2023-04-26T17:32:15.186Z,19.27
2023-04-26T17:37:16.978Z,19.28
2023-04-26T17:42:18.846Z,19.33
2023-04-26T17:47:20.673Z,19.22
2023-04-26T17:52:22.577Z,19.19
2023-04-26T17:57:24.511Z,19.17
2023-04-26T18:02:26.663Z,19.19
2023-04-26T18:07:28.624Z,19.16
2023-04-26T18:12:32.121Z,19.16
2023-04-26T18:17:33.953Z,19.12
2023-04-26T18:22:35.718Z,19.14
2023-04-26T18:27:40.601Z,19.12
2023-04-26T18:32:42.434Z,19.09
2023-04-26T18:37:44.271Z,19.09
2023-04-26T18:42:46.356Z,19.14
2023-04-26T18:47:48.314Z,19.13
2023-04-26T18:52:50.098Z,19.12
2023-04-26T18:57:52.108Z,18.99
2023-04-26T19:02:55.317Z,19.27
2023-04-26T19:07:57.371Z,19.35
2023-04-26T19:12:59.307Z,19.42
2023-04-26T19:18:01.208Z,19.46
2023-04-26T19:23:03.000Z,19.42
2023-04-26T19:28:04.808Z,19.23
2023-04-26T19:33:07.548Z,19.33
2023-04-26T19:38:10.154Z,19.33
2023-04-26T19:43:12.301Z,19.34
2023-04-26T19:48:14.211Z,19.23
2023-04-26T19:53:16.100Z,19.39
2023-04-26T19:58:17.943Z,19.39
2023-04-26T20:03:20.014Z,19.32
2023-04-26T20:08:21.864Z,19.38
2023-04-26T20:13:23.727Z,19.42
2023-04-26T20:18:25.671Z,19.40
2023-04-26T20:23:27.732Z,19.38
2023-04-26T20:28:29.760Z,19.36
2023-04-26T20:33:32.019Z,19.45
2023-04-26T20:38:33.884Z,19.48
2023-04-26T20:43:35.701Z,19.39
2023-04-26T20:48:37.682Z,19.44
2023-04-26T20:53:39.456Z,19.29
2023-04-26T20:58:41.365Z,19.29
2023-04-26T21:03:43.305Z,19.30
2023-04-26T21:08:45.338Z,19.26
2023-04-26T21:13:48.433Z,19.24
2023-04-26T21:18:51.164Z,19.23
2023-04-26T21:23:53.063Z,19.22
2023-04-26T21:28:54.881Z,19.24
2023-04-26T21:33:56.707Z,19.21
2023-04-26T21:38:58.516Z,19.21
2023-04-26T21:44:00.441Z,19.19
2023-04-26T21:49:02.234Z,19.20
2023-04-26T21:54:04.069Z,19.17
2023-04-26T21:59:05.864Z,19.23
2023-04-26T22:04:07.785Z,19.18
2023-04-26T22:09:10.407Z,19.19
2023-04-26T22:14:12.365Z,19.20
2023-04-26T22:19:14.405Z,19.17
2023-04-26T22:24:16.430Z,19.22
2023-04-26T22:29:18.199Z,19.23
2023-04-26T22:34:20.484Z,19.23
2023-04-26T22:39:22.675Z,19.18
2023-04-26T22:44:24.443Z,19.19
2023-04-26T22:49:27.134Z,19.18
2023-04-26T22:54:28.998Z,19.20
2023-04-26T22:59:34.395Z,19.21
2023-04-26T23:04:36.270Z,19.24
2023-04-26T23:09:38.216Z,19.23
2023-04-26T23:14:40.059Z,19.22
2023-04-26T23:19:42.569Z,19.21
2023-04-26T23:24:44.517Z,19.17
2023-04-26T23:29:46.296Z,19.18
2023-04-26T23:34:48.046Z,19.21
2023-04-26T23:39:49.868Z,19.20
2023-04-26T23:44:51.653Z,19.18
2023-04-26T23:49:53.426Z,19.22
2023-04-26T23:54:55.343Z,19.23
2023-04-26T23:59:57.147Z,19.20
